Melbourne, FL

11:24 AM EDT on August 31, 2015 (GMT -0400)
Melbourne International | | Change Station
CLOSE
Current Station
Airport
Location: Melbourne,
Elevation: 33 ft
Nearby Weather Stations
Active Advisory: Areal Flood Watch

Elev 33 ft 28.10 °N, 80.65 °W | Updated 31 minutes ago

Scattered Clouds
Scattered Clouds
87 °F
Feels Like 95 °F
N
8
Wind Variable Wind from SSE

Today
High -- | Low -- °F
--% Chance of Precip.
Yesterday
High -- | Low -- °F
Precip. -- in
7:00 AM 7:44 PM
Waning Gibbous, 95% visible
Pressure 30.06 in
Visibility 10.0 miles
Clouds Scattered Clouds 3000 ft
Heat Index 95 °F
Dew Point 74 °F
Humidity 65%
Rainfall 0.00 in
Snow Depth Not available.
UV 7 out of 12
Pollen 1.60 out of 12
Air Quality Not available.
Flu Activity Not available.
METAR KMLB 311453Z 15007KT 10SM SCT030 31/23 A3006 RMK AO2 SLP180 T03060233 51015
Pressure 30.06 in
Visibility 10.0 miles
Clouds Scattered Clouds 3000 ft
Heat Index 95 °F
Dew Point 74 °F
Humidity 65%
Rainfall 0.00 in
Snow Depth Not available.
UV 7 out of 12
Pollen 1.60 out of 12
Air Quality Not available.
Flu Activity Not available.
METAR KMLB 311453Z 15007KT 10SM SCT030 31/23 A3006 RMK AO2 SLP180 T03060233 51015

10-Day Weather Forecast

×

Almanac

Astronomy

Aug. 31, 2015 Rise Set
Actual Time
Civil Twilight
Nautical Twilight
Astronomical Twilight
Moon
Length of Visible Light
Length of Day
Tomorrow will be .
, % of the Moon is Illuminated

Today's Extremes

State Highs State Lows

Community

WunderPhotos

Upload Photos

1,851,281 photos uploaded!

WunderBlogs® & News

Nearby

Air Quality

  Air Quality AQ Index Pollutant
Not available.

Snow Depth

Station Depth Elevation

Earthquake Activity

City Distance Mag. Time & Date
Minimum magnitude displayed is 2.5.

Coastal Water Temperatures

Place Temperature

Stations

Nearby Weather Stations

Station Location Temp. Windchill Dew Point Humidity Wind Precip. Elev Updated Type
                   
Areal Flood Watch
Statement as of 4:04 AM EDT on August 31, 2015

... Flood Watch remains in effect through this evening...

The Flood Watch continues for

* east central Florida... including
Brevard... Indian River... Lake... Martin... Okeechobee...
Orange... Osceola... Seminole... Saint Lucie and Volusia counties.

* Through this evening.

* Deep tropical moisture over the region will continue to create a
threat for heavy rainfall across east central Florida today.
Additional rainfall up to 3 inches will be possible.

* Heavy rain may create significant flooding of streets... urban
areas... and low lying flood prone areas especially where showers
and storms move repeatedly over the same areas.

Precautionary/preparedness actions...

A Flood Watch means there is a potential for flooding based on
current forecasts.

You should monitor later forecasts and be alert for possible
flood warnings. Those living in areas prone to flooding should be
prepared to take action should flooding develop.



Kelly